Time;durP1;ratioP1;P1;durP2;ratioP2;P2;SDS_P1;SDS_P2;PMS_P1;PMS_P2;Temp;Humidity;BMP_temperature;BMP_pressure;BME280_temperature;BME280_humidity;BME280_pressure;Samples;Min_cycle;Max_cycle;Signal;HPM_P1;HPM_P2
2021/06/14 00:00:38;;;;;;;6.13;4.90;;;15.70;99.90;;;;;;6176824;23;20182;-81
2021/06/14 00:03:05;;;;;;;4.73;4.27;;;15.70;99.90;;;;;;6176680;23;20186;-79
2021/06/14 00:05:35;;;;;;;5.27;4.27;;;15.70;99.90;;;;;;6177560;23;20182;-78
2021/06/14 00:08:04;;;;;;;6.20;4.60;;;15.60;99.90;;;;;;6177542;23;20175;-75
2021/06/14 00:10:32;;;;;;;6.30;4.43;;;15.60;99.90;;;;;;6176955;23;20198;-76
2021/06/14 00:13:00;;;;;;;4.90;4.40;;;15.60;99.90;;;;;;6178230;23;20229;-72
2021/06/14 00:15:27;;;;;;;5.47;3.90;;;15.50;99.90;;;;;;6176415;23;20206;-72
2021/06/14 00:17:55;;;;;;;4.93;3.50;;;15.50;99.90;;;;;;6174632;23;20179;-72
2021/06/14 00:20:23;;;;;;;7.50;4.47;;;15.50;99.90;;;;;;6176763;23;20194;-74
2021/06/14 00:22:50;;;;;;;5.80;4.30;;;15.50;99.90;;;;;;6179416;23;20185;-73
2021/06/14 00:25:21;;;;;;;5.50;3.90;;;15.40;99.90;;;;;;6182523;23;20182;-78
2021/06/14 00:27:48;;;;;;;4.90;4.20;;;15.40;99.90;;;;;;6182416;23;20167;-78
2021/06/14 00:30:22;;;;;;;3.47;3.17;;;15.40;99.90;;;;;;6179036;23;20838;-74
2021/06/14 00:32:50;;;;;;;4.43;3.57;;;15.40;99.90;;;;;;6179280;23;20217;-73
2021/06/14 00:35:17;;;;;;;4.67;3.73;;;15.30;99.90;;;;;;6179888;23;20210;-74
2021/06/14 00:37:44;;;;;;;6.20;3.93;;;15.30;99.90;;;;;;6175088;23;20166;-78
2021/06/14 00:40:11;;;;;;;4.33;3.93;;;15.30;99.90;;;;;;6174126;23;20185;-75
2021/06/14 00:42:38;;;;;;;4.93;3.97;;;15.30;99.90;;;;;;6174484;23;20260;-78
2021/06/14 00:45:08;;;;;;;4.73;4.07;;;15.30;99.90;;;;;;6174546;23;20183;-82
2021/06/14 00:47:37;;;;;;;5.40;3.83;;;15.20;99.90;;;;;;6174930;23;20656;-81
2021/06/14 00:50:04;;;;;;;5.00;4.13;;;15.20;99.90;;;;;;6173518;23;20589;-75
2021/06/14 00:52:31;;;;;;;5.10;3.93;;;15.20;99.90;;;;;;6174630;23;20179;-72
2021/06/14 00:54:58;;;;;;;4.27;3.80;;;15.20;99.90;;;;;;6175120;23;20186;-72
2021/06/14 00:57:25;;;;;;;4.53;4.07;;;15.10;99.90;;;;;;6174515;23;20178;-80
2021/06/14 00:59:52;;;;;;;6.67;4.87;;;15.10;99.90;;;;;;6173072;23;20185;-81
2021/06/14 01:02:18;;;;;;;9.57;4.80;;;15.10;99.90;;;;;;6174055;23;20198;-79
2021/06/14 01:04:47;;;;;;;4.37;3.93;;;15.10;99.90;;;;;;6174151;23;20277;-73
2021/06/14 01:07:13;;;;;;;6.03;4.80;;;15.10;99.90;;;;;;6173027;23;20174;-73
2021/06/14 01:09:40;;;;;;;5.87;4.07;;;15.00;99.90;;;;;;6174752;23;20205;-75
2021/06/14 01:12:12;;;;;;;5.97;4.50;;;15.00;99.90;;;;;;6174102;23;20214;-75
2021/06/14 01:14:48;;;;;;;4.07;3.67;;;15.00;99.90;;;;;;6174430;23;20171;-76
2021/06/14 01:17:23;;;;;;;4.10;3.70;;;15.00;99.90;;;;;;6174122;23;20175;-75
2021/06/14 01:20:11;;;;;;;4.10;3.70;;;14.90;99.90;;;;;;6174446;23;20166;-80
2021/06/14 01:23:05;;;;;;;4.93;3.97;;;14.90;99.90;;;;;;6174530;23;20174;-80
2021/06/14 01:25:36;;;;;;;4.33;3.73;;;14.90;99.90;;;;;;6130408;23;20624;-78
2021/06/14 01:28:08;;;;;;;3.80;3.50;;;14.80;99.90;;;;;;6174183;23;20171;-77
2021/06/14 01:30:37;;;;;;;5.00;4.00;;;14.80;99.90;;;;;;6174422;23;20173;-82
2021/06/14 01:33:08;;;;;;;5.27;4.20;;;14.80;99.90;;;;;;6174194;23;20171;-82
2021/06/14 01:35:37;;;;;;;4.20;3.77;;;14.80;99.90;;;;;;6173572;23;20198;-82
2021/06/14 01:38:06;;;;;;;4.63;4.00;;;14.70;99.90;;;;;;6174983;23;20200;-76
2021/06/14 01:40:34;;;;;;;4.47;3.53;;;14.70;99.90;;;;;;6175243;23;20849;-73
2021/06/14 01:43:07;;;;;;;4.10;3.70;;;14.70;99.90;;;;;;6174326;23;20178;-74
2021/06/14 01:45:37;;;;;;;5.33;4.13;;;14.70;99.90;;;;;;6175359;23;20735;-77
2021/06/14 01:48:05;;;;;;;4.50;3.97;;;14.70;99.90;;;;;;6175191;23;20166;-74
2021/06/14 01:50:33;;;;;;;4.00;3.60;;;14.70;99.90;;;;;;6173835;23;20178;-77
2021/06/14 01:53:00;;;;;;;4.00;3.60;;;14.60;99.90;;;;;;6174594;23;20175;-77
2021/06/14 01:55:28;;;;;;;5.60;4.30;;;14.60;99.90;;;;;;6173158;23;20202;-79
2021/06/14 01:57:56;;;;;;;4.73;4.30;;;14.60;99.90;;;;;;6173304;23;20571;-82
2021/06/14 02:00:26;;;;;;;4.20;3.67;;;14.60;99.90;;;;;;6172820;23;20174;-73
2021/06/14 02:02:54;;;;;;;4.10;3.70;;;14.60;99.90;;;;;;6172356;23;20183;-73
2021/06/14 02:05:24;;;;;;;4.00;3.57;;;14.50;99.90;;;;;;6172425;23;20221;-75
2021/06/14 02:07:51;;;;;;;5.13;4.03;;;14.50;99.90;;;;;;6173330;23;20170;-73
2021/06/14 02:10:21;;;;;;;3.87;3.57;;;14.50;99.90;;;;;;6172044;23;20334;-72
2021/06/14 02:12:48;;;;;;;6.20;4.13;;;14.50;99.90;;;;;;6172496;23;20206;-73
2021/06/14 02:15:19;;;;;;;4.03;3.73;;;14.40;99.90;;;;;;6173129;23;20202;-73
2021/06/14 02:17:49;;;;;;;5.30;3.90;;;14.40;99.90;;;;;;6171662;23;20206;-76
2021/06/14 02:20:17;;;;;;;6.17;4.50;;;14.40;99.90;;;;;;6172685;23;20575;-74
2021/06/14 02:22:43;;;;;;;4.30;3.90;;;14.40;99.90;;;;;;6172538;23;20175;-73
2021/06/14 02:25:12;;;;;;;4.83;3.50;;;14.40;99.90;;;;;;6171903;23;20457;-73
2021/06/14 02:27:40;;;;;;;5.07;4.40;;;14.40;99.90;;;;;;6173544;23;20565;-74
2021/06/14 02:30:10;;;;;;;5.73;4.60;;;14.30;99.90;;;;;;6173416;23;20175;-73
2021/06/14 02:32:37;;;;;;;4.90;3.90;;;14.30;99.90;;;;;;6172976;23;20171;-73
2021/06/14 02:35:07;;;;;;;5.33;4.83;;;14.30;99.90;;;;;;6173025;23;20205;-72
2021/06/14 02:37:35;;;;;;;6.10;4.70;;;14.30;99.90;;;;;;6173496;23;20585;-74
2021/06/14 02:40:02;;;;;;;4.30;3.80;;;14.20;99.90;;;;;;6174034;23;20186;-82
2021/06/14 02:42:29;;;;;;;7.17;4.73;;;14.20;99.90;;;;;;6173355;23;20174;-73
2021/06/14 02:44:56;;;;;;;5.93;5.27;;;14.20;99.90;;;;;;6172955;23;20186;-72
2021/06/14 02:47:23;;;;;;;8.80;5.67;;;14.20;99.90;;;;;;6174142;23;20187;-73
2021/06/14 02:49:51;;;;;;;6.27;4.83;;;14.20;99.90;;;;;;6173220;23;20182;-72
2021/06/14 02:52:19;;;;;;;4.80;4.30;;;14.10;99.90;;;;;;6172141;23;20179;-79
2021/06/14 02:54:51;;;;;;;5.53;4.73;;;14.20;99.90;;;;;;6173873;23;20204;-82
2021/06/14 02:57:18;;;;;;;7.50;5.33;;;14.10;99.90;;;;;;6173157;23;20191;-76
2021/06/14 02:59:48;;;;;;;8.10;5.20;;;14.10;99.90;;;;;;6172459;23;20177;-74
2021/06/14 03:02:15;;;;;;;5.77;4.80;;;14.10;99.90;;;;;;6173656;23;20519;-76
2021/06/14 03:04:42;;;;;;;5.97;4.83;;;14.10;99.90;;;;;;6174870;23;20186;-79
2021/06/14 03:07:09;;;;;;;5.23;4.73;;;14.10;99.90;;;;;;6173535;23;20181;-81
2021/06/14 03:09:38;;;;;;;5.27;4.77;;;14.00;99.90;;;;;;6174336;23;20720;-81
2021/06/14 03:12:05;;;;;;;6.03;4.57;;;14.00;99.90;;;;;;6173997;23;20213;-82
2021/06/14 03:14:33;;;;;;;5.47;4.10;;;14.00;99.90;;;;;;6172757;23;20182;-83
2021/06/14 03:17:00;;;;;;;5.90;4.33;;;14.00;99.90;;;;;;6174759;23;20194;-73
2021/06/14 03:19:28;;;;;;;6.90;5.20;;;14.00;99.90;;;;;;6175517;23;20942;-74
2021/06/14 03:21:55;;;;;;;5.50;4.50;;;14.00;99.90;;;;;;6174883;23;20468;-75
2021/06/14 03:24:22;;;;;;;5.60;4.47;;;14.00;99.90;;;;;;6176572;23;20174;-81
2021/06/14 03:26:51;;;;;;;5.47;4.90;;;14.00;99.90;;;;;;6176651;23;20171;-82
2021/06/14 03:29:19;;;;;;;4.87;4.37;;;14.00;99.90;;;;;;6176747;23;20186;-83
2021/06/14 03:31:48;;;;;;;5.07;4.20;;;14.00;99.90;;;;;;6176186;23;20178;-77
2021/06/14 03:34:17;;;;;;;5.10;4.50;;;13.90;99.90;;;;;;6175315;23;20174;-74
2021/06/14 03:36:44;;;;;;;6.17;5.17;;;13.90;99.90;;;;;;6175966;23;20198;-77
2021/06/14 03:39:11;;;;;;;5.00;4.37;;;13.90;99.90;;;;;;6176030;23;20519;-73
2021/06/14 03:41:42;;;;;;;5.57;4.73;;;14.00;99.90;;;;;;6174908;23;20190;-78
2021/06/14 03:44:21;;;;;;;5.77;4.00;;;13.90;99.90;;;;;;6175755;23;20159;-77
2021/06/14 03:46:48;;;;;;;5.03;4.33;;;13.90;99.90;;;;;;6175944;23;20915;-81
2021/06/14 03:49:15;;;;;;;5.03;4.53;;;14.00;99.90;;;;;;6174876;23;20201;-77
2021/06/14 03:51:42;;;;;;;4.50;4.10;;;14.00;99.90;;;;;;6176270;23;20174;-79
2021/06/14 03:54:09;;;;;;;5.07;4.47;;;14.00;99.90;;;;;;6175425;23;20523;-78
2021/06/14 03:56:37;;;;;;;5.47;4.60;;;14.00;99.90;;;;;;6175357;23;20245;-74
2021/06/14 03:59:04;;;;;;;7.40;5.17;;;14.00;99.90;;;;;;6175958;23;20502;-75
2021/06/14 04:01:34;;;;;;;7.43;5.47;;;14.10;99.90;;;;;;6174744;23;20185;-74
2021/06/14 04:04:21;;;;;;;6.20;5.07;;;14.10;99.90;;;;;;6175328;23;20185;-77
2021/06/14 04:06:48;;;;;;;5.73;4.70;;;14.10;99.90;;;;;;6176022;23;20237;-73
2021/06/14 04:09:15;;;;;;;6.07;4.37;;;14.10;99.90;;;;;;6174653;23;20202;-83
2021/06/14 04:11:42;;;;;;;6.43;4.73;;;14.10;99.90;;;;;;6175850;23;20226;-76
2021/06/14 04:14:09;;;;;;;5.30;4.80;;;14.20;99.90;;;;;;6176391;23;20179;-76
2021/06/14 04:16:38;;;;;;;6.23;5.27;;;14.30;99.90;;;;;;6176614;23;20205;-74
2021/06/14 04:19:05;;;;;;;7.90;5.97;;;14.40;99.90;;;;;;6176265;23;20183;-73
2021/06/14 04:21:31;;;;;;;5.67;5.10;;;14.50;99.90;;;;;;6175694;23;20179;-77
2021/06/14 04:23:58;;;;;;;6.53;5.17;;;14.60;99.90;;;;;;6175845;23;20174;-79
2021/06/14 04:26:25;;;;;;;6.23;4.97;;;14.70;99.90;;;;;;6175954;23;20177;-81
2021/06/14 04:28:52;;;;;;;5.57;4.67;;;14.70;99.90;;;;;;6175780;23;20178;-83
2021/06/14 04:31:18;;;;;;;6.60;4.70;;;14.70;99.90;;;;;;6175782;23;20186;-75
2021/06/14 04:33:47;;;;;;;6.33;4.80;;;14.80;99.90;;;;;;6177282;23;20186;-75
2021/06/14 04:36:14;;;;;;;11.93;5.63;;;14.80;99.90;;;;;;6176526;23;20199;-76
2021/06/14 04:38:40;;;;;;;8.07;5.33;;;14.80;99.90;;;;;;6175916;23;20178;-74
2021/06/14 04:41:07;;;;;;;6.50;4.93;;;14.80;99.90;;;;;;6177098;23;20179;-77
2021/06/14 04:43:34;;;;;;;5.73;4.87;;;14.90;99.90;;;;;;6177038;23;20190;-79
2021/06/14 04:46:01;;;;;;;8.40;5.50;;;14.90;99.90;;;;;;6175288;23;20174;-83
2021/06/14 04:48:27;;;;;;;7.23;5.60;;;15.00;99.90;;;;;;6176391;23;20175;-79
2021/06/14 04:50:56;;;;;;;9.33;5.70;;;15.20;99.90;;;;;;6175253;23;20183;-74
2021/06/14 04:53:23;;;;;;;7.97;6.20;;;15.40;99.90;;;;;;6175569;23;20163;-78
2021/06/14 04:55:49;;;;;;;9.60;6.53;;;15.80;99.90;;;;;;6175269;23;20186;-76
2021/06/14 04:58:16;;;;;;;7.17;6.17;;;16.30;99.90;;;;;;6174667;23;20190;-74
2021/06/14 05:00:43;;;;;;;12.33;7.20;;;16.90;99.90;;;;;;6174961;23;20362;-76
2021/06/14 05:03:10;;;;;;;10.17;7.67;;;17.50;99.90;;;;;;6174911;23;20175;-81
2021/06/14 05:05:37;;;;;;;9.02;6.57;;;18.20;99.90;;;;;;6173479;23;20206;-79
2021/06/14 05:08:06;;;;;;;9.63;6.60;;;18.80;99.90;;;;;;6173493;23;20477;-77
2021/06/14 05:10:33;;;;;;;7.20;5.97;;;19.40;99.90;;;;;;6174517;23;20199;-78
2021/06/14 05:13:00;;;;;;;9.43;6.50;;;19.90;99.90;;;;;;6173270;23;20871;-77
2021/06/14 05:15:26;;;;;;;9.68;7.20;;;20.40;99.90;;;;;;6173628;23;20178;-74
2021/06/14 05:17:53;;;;;;;12.18;7.88;;;20.90;99.90;;;;;;6174648;23;20202;-79
2021/06/14 05:20:20;;;;;;;9.68;6.47;;;21.30;99.90;;;;;;6174783;23;20198;-78
2021/06/14 05:22:47;;;;;;;15.27;7.75;;;21.70;99.90;;;;;;6175141;23;20170;-74
2021/06/14 05:25:15;;;;;;;11.73;8.45;;;22.00;99.90;;;;;;6174863;23;20187;-78
2021/06/14 05:27:43;;;;;;;14.02;8.20;;;22.10;99.90;;;;;;6174878;23;20531;-74
2021/06/14 05:30:10;;;;;;;14.57;7.35;;;22.20;99.90;;;;;;6174946;23;20181;-75
2021/06/14 05:32:38;;;;;;;11.00;6.97;;;22.30;99.90;;;;;;6175858;23;20282;-81
2021/06/14 05:35:06;;;;;;;10.70;6.10;;;22.60;99.90;;;;;;6175553;23;20178;-75
2021/06/14 05:37:33;;;;;;;10.93;6.72;;;22.70;99.90;;;;;;6173918;23;20685;-75
2021/06/14 05:39:59;;;;;;;11.57;7.38;;;23.10;99.90;;;;;;6173785;23;20174;-80
2021/06/14 05:42:27;;;;;;;12.43;7.68;;;23.20;99.90;;;;;;6173100;23;20175;-77
2021/06/14 05:44:55;;;;;;;11.75;7.05;;;23.20;99.90;;;;;;6173461;23;20178;-77
2021/06/14 05:47:22;;;;;;;9.98;7.18;;;23.40;99.90;;;;;;6172707;23;20578;-80
2021/06/14 05:49:49;;;;;;;12.57;6.88;;;23.20;99.90;;;;;;6172779;23;20564;-73
2021/06/14 05:52:15;;;;;;;7.65;5.63;;;23.10;99.90;;;;;;6173634;23;20188;-77
2021/06/14 05:54:42;;;;;;;10.40;7.38;;;23.40;99.90;;;;;;6172147;23;20179;-72
2021/06/14 05:57:09;;;;;;;11.77;7.70;;;23.60;99.90;;;;;;6172696;23;20206;-73
2021/06/14 05:59:38;;;;;;;11.05;7.38;;;23.70;99.90;;;;;;6173685;23;20183;-78
2021/06/14 06:02:06;;;;;;;12.73;8.07;;;23.80;99.90;;;;;;6171725;23;20682;-80
2021/06/14 06:04:33;;;;;;;11.05;7.30;;;23.70;99.90;;;;;;6173398;23;20175;-74
2021/06/14 06:07:00;;;;;;;10.60;7.57;;;23.40;99.90;;;;;;6173142;23;20177;-76
2021/06/14 06:09:27;;;;;;;13.02;7.13;;;23.60;99.90;;;;;;6170854;23;20607;-76
2021/06/14 06:11:54;;;;;;;14.30;7.93;;;23.90;99.90;;;;;;6172464;23;20205;-73
2021/06/14 06:14:21;;;;;;;9.73;7.00;;;24.10;99.90;;;;;;6172827;23;20190;-73
2021/06/14 06:16:49;;;;;;;12.25;6.82;;;24.50;99.90;;;;;;6170770;23;20190;-74
2021/06/14 06:19:16;;;;;;;10.93;7.00;;;24.80;99.90;;;;;;6172358;23;20182;-75
2021/06/14 06:21:43;;;;;;;9.52;5.97;;;25.10;99.90;;;;;;6172058;23;20175;-73
2021/06/14 06:24:10;;;;;;;9.43;6.28;;;25.50;99.90;;;;;;6171585;23;20174;-74
2021/06/14 06:26:37;;;;;;;10.63;6.40;;;25.80;99.90;;;;;;6171954;23;20797;-72
2021/06/14 06:29:04;;;;;;;11.80;5.95;;;26.30;99.90;;;;;;6172338;23;20557;-73
2021/06/14 06:31:31;;;;;;;11.05;5.68;;;26.50;99.90;;;;;;6171585;23;20175;-73
2021/06/14 06:33:59;;;;;;;7.45;4.70;;;26.70;99.90;;;;;;6171821;23;20174;-72
2021/06/14 06:36:26;;;;;;;12.18;5.80;;;26.90;99.90;;;;;;6171999;23;20198;-73
2021/06/14 06:38:53;;;;;;;9.73;5.65;;;26.90;99.90;;;;;;6171679;23;20178;-73
2021/06/14 06:41:19;;;;;;;8.20;4.75;;;27.10;99.90;;;;;;6172112;23;20179;-73
2021/06/14 06:43:46;;;;;;;6.90;4.28;;;27.40;99.90;;;;;;6171661;23;20182;-81
2021/06/14 06:46:13;;;;;;;11.02;5.10;;;27.40;99.90;;;;;;6171217;23;20547;-73
2021/06/14 06:48:40;;;;;;;8.75;4.47;;;27.50;99.90;;;;;;6171964;23;20201;-73
2021/06/14 06:51:08;;;;;;;9.93;4.63;;;27.50;99.90;;;;;;6171018;23;20174;-76
2021/06/14 06:53:35;;;;;;;8.43;4.72;;;27.60;99.90;;;;;;6172644;23;20261;-72
2021/06/14 06:56:03;;;;;;;6.75;4.15;;;27.70;99.90;;;;;;6171765;23;20189;-76
2021/06/14 06:58:29;;;;;;;8.02;4.40;;;27.80;99.90;;;;;;6169937;23;20234;-73
2021/06/14 07:00:58;;;;;;;6.55;4.10;;;27.70;99.90;;;;;;6171828;23;20166;-73
2021/06/14 07:03:24;;;;;;;9.13;4.57;;;27.50;99.90;;;;;;6169768;23;20178;-73
2021/06/14 07:05:51;;;;;;;6.32;4.30;;;27.70;99.90;;;;;;6171182;23;20182;-75
2021/06/14 07:08:19;;;;;;;7.50;4.00;;;27.90;99.90;;;;;;6171922;23;20174;-79
2021/06/14 07:10:46;;;;;;;7.68;4.38;;;28.30;99.90;;;;;;6171424;23;20174;-81
2021/06/14 07:13:16;;;;;;;7.47;4.00;;;28.50;99.90;;;;;;6170770;23;20171;-79
2021/06/14 07:15:43;;;;;;;8.57;4.00;;;28.60;99.90;;;;;;6171816;23;20771;-73
2021/06/14 07:18:09;;;;;;;7.95;3.67;;;28.70;99.90;;;;;;6171189;23;20609;-74
2021/06/14 07:20:36;;;;;;;8.13;3.92;;;28.90;99.90;;;;;;6171091;23;20178;-75
2021/06/14 07:23:03;;;;;;;9.38;3.95;;;29.00;99.90;;;;;;6171509;23;20166;-76
2021/06/14 07:25:31;;;;;;;6.13;3.55;;;29.00;99.90;;;;;;6171835;23;20179;-78
2021/06/14 07:27:58;;;;;;;4.95;3.45;;;29.30;99.90;;;;;;6170883;23;20182;-78
2021/06/14 07:30:25;;;;;;;7.18;3.80;;;29.30;99.90;;;;;;6171297;23;20178;-75
2021/06/14 07:32:52;;;;;;;7.10;3.72;;;29.40;99.90;;;;;;6171301;23;20185;-77
2021/06/14 07:35:18;;;;;;;7.22;3.90;;;29.40;99.90;;;;;;6171259;23;20175;-80
2021/06/14 07:37:45;;;;;;;5.57;3.45;;;29.50;99.90;;;;;;6171114;23;20206;-78
2021/06/14 07:40:13;;;;;;;7.72;3.70;;;29.80;99.90;;;;;;6171630;23;20182;-81
2021/06/14 07:42:41;;;;;;;5.75;3.45;;;29.90;99.90;;;;;;6171703;23;20476;-78
2021/06/14 07:45:09;;;;;;;7.03;3.47;;;30.10;99.90;;;;;;6171827;23;20175;-76
2021/06/14 07:47:37;;;;;;;7.53;3.78;;;30.30;99.90;;;;;;6171260;23;20182;-77
2021/06/14 07:50:06;;;;;;;9.55;4.32;;;30.40;99.90;;;;;;6172585;23;20182;-77
2021/06/14 07:52:32;;;;;;;11.65;4.43;;;30.70;99.90;;;;;;6172186;23;20404;-74
2021/06/14 07:54:59;;;;;;;8.05;3.95;;;30.80;99.90;;;;;;6170032;23;20178;-75
2021/06/14 07:57:26;;;;;;;11.25;4.35;;;31.00;99.90;;;;;;6172055;23;20202;-80
2021/06/14 07:59:54;;;;;;;7.30;3.88;;;30.90;99.90;;;;;;6171978;23;20782;-79
2021/06/14 08:02:21;;;;;;;7.82;4.00;;;31.10;99.90;;;;;;6172842;23;20178;-78
2021/06/14 08:04:48;;;;;;;5.45;3.58;;;31.20;99.90;;;;;;6172469;23;20520;-78
2021/06/14 08:07:15;;;;;;;6.53;3.67;;;31.00;99.90;;;;;;6173719;23;20178;-75
2021/06/14 08:09:42;;;;;;;7.00;3.42;;;31.20;99.90;;;;;;6173271;23;20206;-77
2021/06/14 08:12:10;;;;;;;8.23;3.60;;;31.20;99.90;;;;;;6173035;23;20638;-77
2021/06/14 08:14:37;;;;;;;8.23;4.30;;;31.30;99.90;;;;;;6173388;23;20174;-76
2021/06/14 08:17:05;;;;;;;8.18;4.15;;;31.30;99.90;;;;;;6172336;23;20534;-74
2021/06/14 08:19:38;;;;;;;8.20;4.70;;;31.30;99.90;;;;;;6173411;23;20729;-80
2021/06/14 08:25:04;;;;;;;9.35;5.03;;;31.10;99.90;;;;;;6171348;23;20197;-77
2021/06/14 08:27:33;;;;;;;10.35;4.72;;;31.20;99.90;;;;;;6171298;23;20162;-76
2021/06/14 08:29:59;;;;;;;9.15;4.30;;;31.40;99.90;;;;;;6173207;23;20178;-76
2021/06/14 08:32:27;;;;;;;9.48;4.57;;;31.40;99.90;;;;;;6173156;23;20175;-77
2021/06/14 08:34:54;;;;;;;12.48;4.63;;;31.20;99.90;;;;;;6172959;23;20631;-77
2021/06/14 08:37:21;;;;;;;9.05;4.10;;;31.20;99.90;;;;;;6172157;23;20191;-73
2021/06/14 08:39:48;;;;;;;7.30;4.55;;;31.00;99.90;;;;;;6172699;23;20185;-78
2021/06/14 08:42:15;;;;;;;7.45;4.15;;;31.10;99.90;;;;;;6172641;23;20179;-73
2021/06/14 08:44:43;;;;;;;6.97;4.47;;;31.20;99.90;;;;;;6172728;23;20179;-78
2021/06/14 08:47:11;;;;;;;8.68;4.40;;;31.20;99.90;;;;;;6172484;23;20530;-74
2021/06/14 08:49:39;;;;;;;11.90;5.00;;;31.50;99.90;;;;;;6172693;23;20758;-79
2021/06/14 08:52:08;;;;;;;8.93;4.47;;;31.40;99.90;;;;;;6172269;23;20179;-78
2021/06/14 08:54:37;;;;;;;11.35;4.28;;;31.70;99.90;;;;;;6173430;23;20182;-78
2021/06/14 08:57:04;;;;;;;11.40;4.53;;;31.60;99.90;;;;;;6173037;23;20178;-76
2021/06/14 08:59:31;;;;;;;8.60;4.97;;;31.50;99.90;;;;;;6170639;23;20179;-78
2021/06/14 09:01:59;;;;;;;9.48;4.95;;;31.30;99.90;;;;;;6172980;23;20175;-76
2021/06/14 09:04:26;;;;;;;8.10;4.40;;;31.30;99.90;;;;;;6171899;23;20183;-73
2021/06/14 09:06:54;;;;;;;8.98;4.65;;;31.30;99.90;;;;;;6172917;23;20179;-77
2021/06/14 09:09:21;;;;;;;7.55;4.18;;;31.40;99.90;;;;;;6172593;23;20195;-78
2021/06/14 09:11:51;;;;;;;8.88;4.63;;;31.30;99.90;;;;;;6171618;23;20207;-79
2021/06/14 09:14:20;;;;;;;13.48;4.47;;;31.40;99.90;;;;;;6172382;23;20179;-73
2021/06/14 09:16:49;;;;;;;9.40;4.47;;;31.40;99.90;;;;;;6171706;23;20178;-73
2021/06/14 09:19:29;;;;;;;9.55;4.15;;;31.50;99.90;;;;;;6171742;23;20217;-73
2021/06/14 09:22:09;;;;;;;8.80;4.60;;;31.60;99.90;;;;;;6172250;23;20721;-73
2021/06/14 09:24:36;;;;;;;11.70;4.53;;;31.70;99.90;;;;;;6172649;23;20170;-72
2021/06/14 09:27:03;;;;;;;9.45;4.63;;;31.70;99.90;;;;;;6171842;23;20186;-73
2021/06/14 09:29:30;;;;;;;9.73;4.88;;;31.30;99.90;;;;;;6171820;23;20193;-75
2021/06/14 09:31:59;;;;;;;9.05;4.68;;;31.40;99.90;;;;;;6172515;23;20182;-75
2021/06/14 09:34:34;;;;;;;6.75;4.32;;;31.40;99.90;;;;;;6171407;23;20182;-74
2021/06/14 09:37:06;;;;;;;8.10;4.32;;;31.40;99.90;;;;;;6172202;23;20180;-75
2021/06/14 09:39:38;;;;;;;8.02;4.78;;;31.40;99.90;;;;;;6171921;23;20194;-74
2021/06/14 09:42:14;;;;;;;10.07;4.57;;;31.50;99.90;;;;;;6172623;23;20178;-73
2021/06/14 09:44:41;;;;;;;12.25;5.60;;;31.70;99.90;;;;;;6173023;23;20166;-77
2021/06/14 09:47:10;;;;;;;12.32;4.55;;;31.70;99.90;;;;;;6171670;23;20179;-77
2021/06/14 09:49:38;;;;;;;8.18;4.93;;;31.60;99.90;;;;;;6172263;23;20842;-74
2021/06/14 09:52:08;;;;;;;10.60;5.20;;;31.70;99.90;;;;;;6172228;23;20186;-73
2021/06/14 09:54:36;;;;;;;11.00;5.45;;;31.90;99.90;;;;;;6171404;23;20185;-74
2021/06/14 09:57:08;;;;;;;9.60;5.50;;;31.90;99.90;;;;;;6171851;23;20175;-74
2021/06/14 09:59:40;;;;;;;9.38;5.72;;;31.80;99.90;;;;;;6172888;23;20253;-74
2021/06/14 10:02:16;;;;;;;10.30;5.97;;;31.90;99.90;;;;;;6171569;23;20210;-72
2021/06/14 10:04:43;;;;;;;11.80;5.10;;;31.80;99.90;;;;;;6172728;23;20196;-76
2021/06/14 10:07:14;;;;;;;8.98;4.82;;;31.80;99.90;;;;;;6171953;23;20178;-76
2021/06/14 10:09:42;;;;;;;7.47;3.95;;;31.90;99.90;;;;;;6171596;23;20199;-73
2021/06/14 10:12:20;;;;;;;7.45;4.22;;;31.90;99.90;;;;;;6171432;23;20222;-77
2021/06/14 10:14:54;;;;;;;7.70;4.60;;;31.90;99.90;;;;;;6170974;23;20178;-75
2021/06/14 10:17:33;;;;;;;10.48;4.95;;;31.90;99.90;;;;;;6171278;23;20167;-78
2021/06/14 10:20:25;;;;;;;6.88;3.88;;;31.90;99.90;;;;;;6172376;23;20174;-75
2021/06/14 10:22:55;;;;;;;10.50;4.93;;;32.00;99.90;;;;;;6141553;23;20182;-75
2021/06/14 10:25:23;;;;;;;8.20;4.18;;;31.90;99.90;;;;;;6171936;23;20175;-75
2021/06/14 10:27:50;;;;;;;6.38;3.72;;;32.20;99.90;;;;;;6171087;23;20857;-78
2021/06/14 10:30:19;;;;;;;9.50;5.22;;;32.00;99.90;;;;;;6171715;23;20206;-78
2021/06/14 10:32:46;;;;;;;7.75;4.20;;;31.90;99.90;;;;;;6171806;23;20175;-79
2021/06/14 10:35:16;;;;;;;6.45;4.63;;;32.10;99.90;;;;;;6171833;23;20181;-77
2021/06/14 10:37:45;;;;;;;11.30;5.07;;;32.20;99.90;;;;;;6171997;23;20209;-74
2021/06/14 10:40:16;;;;;;;11.25;5.80;;;32.20;99.90;;;;;;6174726;23;20178;-79
2021/06/14 10:42:45;;;;;;;12.35;5.45;;;32.10;99.90;;;;;;6177148;23;20166;-74
2021/06/14 10:45:14;;;;;;;7.07;4.50;;;31.80;99.90;;;;;;6172471;23;20182;-77
2021/06/14 10:47:44;;;;;;;10.20;4.93;;;31.60;99.90;;;;;;6171982;23;20175;-73
2021/06/14 10:50:14;;;;;;;8.95;4.05;;;31.70;99.90;;;;;;6170684;23;20462;-76
2021/06/14 10:52:43;;;;;;;7.38;4.47;;;31.80;99.90;;;;;;6171935;23;20213;-73
2021/06/14 10:55:13;;;;;;;9.15;4.70;;;31.70;99.90;;;;;;6172104;23;20185;-73
2021/06/14 10:57:41;;;;;;;8.75;4.00;;;31.90;99.90;;;;;;6171843;23;20171;-76
2021/06/14 11:00:26;;;;;;;8.52;3.35;;;32.00;99.90;;;;;;6171838;23;20202;-77
2021/06/14 11:02:54;;;;;;;7.10;3.78;;;31.90;99.90;;;;;;6171434;23;20174;-76
2021/06/14 11:05:32;;;;;;;8.77;3.95;;;31.90;99.90;;;;;;6170693;23;20201;-75
2021/06/14 11:08:11;;;;;;;5.53;2.97;;;31.80;99.90;;;;;;6172144;23;20174;-80
2021/06/14 11:10:39;;;;;;;5.03;3.42;;;31.60;99.90;;;;;;6172619;23;20170;-79
2021/06/14 11:13:08;;;;;;;6.55;3.60;;;31.50;99.90;;;;;;6170827;23;20178;-77
2021/06/14 11:15:35;;;;;;;5.95;3.30;;;31.40;99.90;;;;;;6171991;23;20179;-75
2021/06/14 11:18:06;;;;;;;6.57;3.33;;;31.30;99.90;;;;;;6171846;23;20201;-74
2021/06/14 11:20:35;;;;;;;6.82;3.03;;;31.30;99.90;;;;;;6171647;23;20162;-78
2021/06/14 11:23:02;;;;;;;7.95;4.00;;;31.40;99.90;;;;;;6171331;23;20175;-73
2021/06/14 11:25:31;;;;;;;9.23;3.63;;;31.10;99.90;;;;;;6171098;23;20174;-76
2021/06/14 11:28:03;;;;;;;6.03;3.70;;;30.70;99.90;;;;;;6172242;23;20221;-78
2021/06/14 11:30:32;;;;;;;7.63;3.85;;;30.60;99.90;;;;;;6171298;23;20528;-79
2021/06/14 11:32:59;;;;;;;6.20;3.78;;;30.30;99.90;;;;;;6171300;23;20586;-78
2021/06/14 11:35:27;;;;;;;5.03;3.08;;;30.30;99.90;;;;;;6172304;23;20175;-80
2021/06/14 11:37:55;;;;;;;6.90;3.45;;;30.40;99.90;;;;;;6172585;23;20179;-73
2021/06/14 11:40:28;;;;;;;6.72;3.40;;;30.70;99.90;;;;;;6173057;23;20182;-74
2021/06/14 11:43:00;;;;;;;6.88;3.10;;;31.00;99.90;;;;;;6173775;23;20167;-79
2021/06/14 11:45:29;;;;;;;8.27;3.72;;;31.30;99.90;;;;;;6173990;23;20185;-75
2021/06/14 11:47:58;;;;;;;6.20;3.15;;;31.10;99.90;;;;;;6171629;23;20178;-76
2021/06/14 11:50:26;;;;;;;6.55;3.83;;;30.90;99.90;;;;;;6174101;23;20186;-79
2021/06/14 11:53:01;;;;;;;5.05;3.67;;;30.80;99.90;;;;;;6172338;23;20197;-80
2021/06/14 11:55:29;;;;;;;5.68;3.50;;;30.50;99.90;;;;;;6170794;23;20171;-76
2021/06/14 11:57:57;;;;;;;7.72;3.58;;;30.10;99.90;;;;;;6172944;23;20174;-74
2021/06/14 12:00:30;;;;;;;9.63;3.55;;;29.90;99.90;;;;;;6173050;23;20179;-75
2021/06/14 12:02:58;;;;;;;6.43;4.18;;;29.70;99.90;;;;;;6173046;23;20174;-75
2021/06/14 12:05:32;;;;;;;7.90;4.10;;;29.50;99.90;;;;;;6173252;23;20185;-78
2021/06/14 12:08:00;;;;;;;6.88;4.32;;;29.50;99.90;;;;;;6172510;23;20178;-78
2021/06/14 12:10:27;;;;;;;8.60;4.70;;;29.50;99.90;;;;;;6173239;23;20198;-79
2021/06/14 12:13:05;;;;;;;7.97;4.95;;;29.60;99.90;;;;;;6172799;23;20206;-79
2021/06/14 12:15:33;;;;;;;7.68;4.60;;;29.50;99.90;;;;;;6172866;23;20669;-73
2021/06/14 12:18:00;;;;;;;10.18;5.00;;;29.30;99.90;;;;;;6172505;23;20179;-76
2021/06/14 12:20:29;;;;;;;8.90;5.63;;;29.10;99.90;;;;;;6173130;23;20186;-76
2021/06/14 12:23:01;;;;;;;5.97;4.18;;;29.20;99.90;;;;;;6171996;23;20512;-75
2021/06/14 12:25:29;;;;;;;8.57;5.63;;;29.20;99.90;;;;;;6173006;23;20174;-82
2021/06/14 12:28:00;;;;;;;10.65;5.10;;;29.10;99.90;;;;;;6172967;23;20179;-78
2021/06/14 12:30:28;;;;;;;8.90;5.55;;;29.20;99.90;;;;;;6171975;23;20171;-73
2021/06/14 12:32:57;;;;;;;7.00;3.90;;;29.10;99.90;;;;;;6172654;23;20171;-73
2021/06/14 12:35:25;;;;;;;10.60;4.90;;;29.20;99.90;;;;;;6173095;23;20243;-74
2021/06/14 12:37:52;;;;;;;4.93;3.70;;;29.40;99.90;;;;;;6171734;23;20186;-77
2021/06/14 12:40:22;;;;;;;7.93;4.97;;;29.70;99.90;;;;;;6172816;23;20249;-74
2021/06/14 12:42:56;;;;;;;8.23;4.57;;;29.80;99.90;;;;;;6171987;23;20182;-73
2021/06/14 12:45:23;;;;;;;7.57;4.80;;;29.90;99.90;;;;;;6173081;23;20196;-73
2021/06/14 12:47:52;;;;;;;8.60;5.05;;;30.00;99.90;;;;;;6172825;23;20174;-74
2021/06/14 12:50:24;;;;;;;7.03;4.30;;;30.10;99.90;;;;;;6171947;23;20182;-74
2021/06/14 12:52:51;;;;;;;9.45;5.05;;;30.30;99.90;;;;;;6172299;23;20166;-75
2021/06/14 12:55:20;;;;;;;8.57;5.57;;;30.60;99.90;;;;;;6172100;23;20697;-74